createdAt,value
2017-07-03T00:00:24.326Z,-0.5
2017-07-03T00:01:23.928Z,-0.5
2017-07-03T00:02:23.143Z,-0.5
2017-07-03T00:03:22.351Z,-0.5
2017-07-03T00:04:22.118Z,-0.5
2017-07-03T00:06:20.223Z,-0.6
2017-07-03T00:07:19.435Z,-0.6
2017-07-03T00:08:18.520Z,-0.5
2017-07-03T00:09:18.288Z,-0.5
2017-07-03T00:10:16.882Z,-0.4
2017-07-03T00:11:16.090Z,-0.4
2017-07-03T00:12:15.801Z,-0.4
2017-07-03T00:13:15.018Z,-0.5
2017-07-03T00:13:45.558Z,-0.5
2017-07-03T00:14:16.073Z,-0.4
2017-07-03T00:15:13.265Z,-0.5
2017-07-03T00:16:12.356Z,-0.5
2017-07-03T00:17:11.879Z,-0.4
2017-07-03T00:18:10.772Z,-0.5
2017-07-03T00:19:10.983Z,-0.5
2017-07-03T00:20:09.683Z,-0.5
2017-07-03T00:21:08.911Z,-0.5
2017-07-03T00:22:08.119Z,-0.4
2017-07-03T00:23:07.347Z,-0.4
2017-07-03T00:24:06.567Z,-0.3
2017-07-03T00:25:05.785Z,-0.4
2017-07-03T00:26:05.531Z,-0.3
2017-07-03T00:27:04.120Z,-0.4
2017-07-03T00:28:04.290Z,-0.2
2017-07-03T00:29:02.996Z,-0.3
2017-07-03T00:30:02.219Z,-0.3
2017-07-03T00:31:01.312Z,-0.3
2017-07-03T00:32:00.523Z,-0.3
2017-07-03T00:32:59.736Z,-0.3
2017-07-03T00:33:58.894Z,-0.3
2017-07-03T00:34:58.215Z,-0.3
2017-07-03T00:35:57.935Z,-0.3
2017-07-03T00:36:56.927Z,-0.4
2017-07-03T00:37:56.723Z,-0.4
2017-07-03T00:38:55.333Z,-0.4
2017-07-03T00:39:54.552Z,-0.4
2017-07-03T00:40:53.764Z,-0.5
2017-07-03T00:41:52.978Z,-0.3
2017-07-03T00:42:23.519Z,-0.3
2017-07-03T00:42:54.042Z,-0.4
2017-07-03T00:43:25.016Z,-0.4
2017-07-03T00:43:54.919Z,-0.4
2017-07-03T00:44:25.457Z,-0.4
2017-07-03T00:45:50.331Z,-0.3
2017-07-03T00:46:50.110Z,-0.3
2017-07-03T00:47:48.695Z,-0.4
2017-07-03T00:48:47.912Z,-0.4
2017-07-03T00:49:47.139Z,-0.4
2017-07-03T00:50:47.303Z,-0.4
2017-07-03T00:51:45.494Z,-0.4
2017-07-03T00:52:45.201Z,-0.6
2017-07-03T00:53:44.424Z,-0.5
2017-07-03T00:54:43.638Z,-0.4
2017-07-03T00:55:42.871Z,-0.4
2017-07-03T00:56:41.970Z,-0.4
2017-07-03T00:58:40.444Z,-0.4
2017-07-03T00:59:39.606Z,-0.4
2017-07-03T01:00:38.821Z,-0.5
2017-07-03T01:01:37.918Z,-0.3
2017-07-03T01:02:37.640Z,-0.5
2017-07-03T01:03:37.403Z,-0.4
2017-07-03T01:04:36.690Z,-0.4
2017-07-03T01:05:35.988Z,-0.5
2017-07-03T01:06:34.692Z,-0.6
2017-07-03T01:07:33.899Z,-0.5
2017-07-03T01:08:33.013Z,-0.5
2017-07-03T01:09:32.224Z,-0.5
2017-07-03T01:10:31.310Z,-0.6
2017-07-03T01:11:30.525Z,-0.7
2017-07-03T01:12:30.709Z,-0.7
2017-07-03T01:13:29.400Z,-0.7
2017-07-03T01:14:28.628Z,-0.7
2017-07-03T01:15:27.843Z,-0.7
2017-07-03T01:16:27.045Z,-0.6
2017-07-03T01:17:26.301Z,-0.7
2017-07-03T01:18:25.511Z,-0.7
2017-07-03T01:19:24.736Z,-0.7
2017-07-03T01:20:24.525Z,-0.7
2017-07-03T01:21:23.236Z,-0.7
2017-07-03T01:22:22.436Z,-0.8
2017-07-03T01:23:21.634Z,-0.8
2017-07-03T01:24:20.626Z,-0.8
2017-07-03T01:25:20.347Z,-0.7
2017-07-03T01:26:19.434Z,-0.7
2017-07-03T01:27:18.526Z,-0.5
2017-07-03T01:28:17.738Z,-0.5
2017-07-03T01:29:16.947Z,-0.6
2017-07-03T01:30:16.546Z,-0.5
2017-07-03T01:31:15.762Z,-0.6
2017-07-03T01:32:14.977Z,-0.7
2017-07-03T01:33:14.196Z,-0.7
2017-07-03T01:34:13.413Z,-0.8
2017-07-03T01:35:12.628Z,-0.8
2017-07-03T01:36:12.419Z,-0.8
2017-07-03T01:38:10.513Z,-0.9
2017-07-03T01:39:10.206Z,-0.9
2017-07-03T01:40:08.915Z,-0.9
2017-07-03T01:41:07.882Z,-0.9
2017-07-03T01:42:07.482Z,-0.9
2017-07-03T01:43:06.622Z,-0.9
2017-07-03T01:44:05.902Z,-0.9
2017-07-03T01:45:05.710Z,-0.9
2017-07-03T01:46:04.483Z,-0.9
2017-07-03T01:47:03.705Z,-0.8
2017-07-03T01:48:02.962Z,-0.8
2017-07-03T01:49:02.189Z,-0.8
2017-07-03T01:50:01.060Z,-0.8
2017-07-03T01:51:00.674Z,-0.8
2017-07-03T01:51:59.895Z,-0.8
2017-07-03T01:52:59.122Z,-0.8
2017-07-03T01:53:58.346Z,-0.8
2017-07-03T01:54:57.552Z,-0.8
2017-07-03T01:56:55.662Z,-0.8
2017-07-03T01:57:55.443Z,-0.8
2017-07-03T01:58:54.028Z,-0.8
2017-07-03T01:59:53.622Z,-0.8
2017-07-03T02:00:52.709Z,-0.9
2017-07-03T02:01:52.121Z,-0.9
2017-07-03T02:02:51.909Z,-1
2017-07-03T02:03:50.621Z,-1
2017-07-03T02:04:49.836Z,-0.9
2017-07-03T02:05:48.937Z,-0.9
2017-07-03T02:06:48.234Z,-0.9
2017-07-03T02:07:48.017Z,-0.9
2017-07-03T02:08:17.974Z,-0.9
2017-07-03T02:09:45.876Z,-0.9
2017-07-03T02:10:45.097Z,-0.8
2017-07-03T02:11:44.299Z,-0.8
2017-07-03T02:12:43.519Z,-0.8
2017-07-03T02:13:42.732Z,-0.9
2017-07-03T02:14:41.946Z,-0.9
2017-07-03T02:15:41.160Z,-0.9
2017-07-03T02:16:40.257Z,-0.9
2017-07-03T02:17:39.978Z,-0.9
2017-07-03T02:18:39.761Z,-0.9
2017-07-03T02:19:37.964Z,-0.9
2017-07-03T02:20:37.161Z,-0.9
2017-07-03T02:21:36.870Z,-0.9
2017-07-03T02:22:35.972Z,-0.9
2017-07-03T02:23:35.191Z,-0.8
2017-07-03T02:24:34.155Z,-0.8
2017-07-03T02:25:33.747Z,-0.7
2017-07-03T02:26:32.953Z,-0.8
2017-07-03T02:27:32.166Z,-0.8
2017-07-03T02:28:31.388Z,-0.7
2017-07-03T02:30:29.383Z,-0.7
2017-07-03T02:31:29.103Z,-0.7
2017-07-03T02:32:28.336Z,-0.7
2017-07-03T02:33:27.537Z,-0.7
2017-07-03T02:34:26.632Z,-0.6
2017-07-03T02:35:25.735Z,-0.6
2017-07-03T02:36:24.826Z,-0.6
2017-07-03T02:37:24.422Z,-0.6
2017-07-03T02:38:24.788Z,-0.6
2017-07-03T02:39:22.880Z,-0.7
2017-07-03T02:40:22.092Z,-0.7
2017-07-03T02:41:21.176Z,-0.7
2017-07-03T02:42:20.398Z,-0.8
2017-07-03T02:43:19.894Z,-0.6
2017-07-03T02:44:18.980Z,-0.6
2017-07-03T02:45:18.191Z,-0.6
2017-07-03T02:46:17.284Z,-0.6
2017-07-03T02:47:16.392Z,-0.6
2017-07-03T02:48:16.104Z,-0.6
2017-07-03T02:49:15.895Z,-0.6
2017-07-03T02:50:14.091Z,-0.6
2017-07-03T02:52:12.693Z,-0.6
2017-07-03T02:53:11.903Z,-0.6
2017-07-03T02:54:11.121Z,-0.6
2017-07-03T02:55:10.335Z,-0.6
2017-07-03T02:56:09.547Z,-0.6
2017-07-03T02:57:08.762Z,-0.6
2017-07-03T02:58:07.969Z,-0.6
2017-07-03T02:59:07.189Z,-0.6
2017-07-03T03:00:06.405Z,-0.6
2017-07-03T03:01:05.617Z,-0.7
2017-07-03T03:02:05.323Z,-0.6
2017-07-03T03:03:04.536Z,-0.6
2017-07-03T03:04:03.742Z,-0.6
2017-07-03T03:05:02.849Z,-0.6
2017-07-03T03:06:01.717Z,-0.6
2017-07-03T03:07:01.432Z,-0.6
2017-07-03T03:08:00.652Z,-0.7
2017-07-03T03:08:59.870Z,-0.7
2017-07-03T03:09:59.086Z,-0.7
2017-07-03T03:10:58.298Z,-0.7
2017-07-03T03:11:57.519Z,-0.7
2017-07-03T03:12:56.741Z,-0.7
2017-07-03T03:13:56.534Z,-0.7
2017-07-03T03:14:55.323Z,-0.7
2017-07-03T03:15:54.427Z,-0.7
2017-07-03T03:16:53.639Z,-0.7
2017-07-03T03:17:52.756Z,-0.7
2017-07-03T03:18:23.276Z,-0.7
2017-07-03T03:18:53.727Z,-0.7
2017-07-03T03:19:51.439Z,-0.7
2017-07-03T03:20:50.656Z,-0.6
2017-07-03T03:21:49.870Z,-0.6
2017-07-03T03:22:49.078Z,-0.6
2017-07-03T03:23:48.292Z,-0.7
2017-07-03T03:24:47.511Z,-0.7
2017-07-03T03:25:46.718Z,-0.7
2017-07-03T03:26:45.928Z,-0.7
2017-07-03T03:27:16.222Z,-0.7
2017-07-03T03:27:46.626Z,-0.8
2017-07-03T03:28:44.354Z,-0.8
2017-07-03T03:29:43.633Z,-0.8
2017-07-03T03:30:42.896Z,-0.8
2017-07-03T03:31:41.821Z,-0.8
2017-07-03T03:32:41.049Z,-0.8
2017-07-03T03:33:40.149Z,-0.8
2017-07-03T03:34:40.187Z,-0.8
2017-07-03T03:35:38.898Z,-0.9
2017-07-03T03:36:38.110Z,-0.9
2017-07-03T03:37:37.328Z,-0.9
2017-07-03T03:38:36.548Z,-0.9
2017-07-03T03:39:07.147Z,-0.9
2017-07-03T03:39:37.676Z,-0.8
2017-07-03T03:40:08.202Z,-0.8
2017-07-03T03:40:38.728Z,-0.8
2017-07-03T03:41:34.416Z,-0.8
2017-07-03T03:42:33.634Z,-0.8
2017-07-03T03:43:32.843Z,-0.8
2017-07-03T03:44:31.829Z,-0.9
2017-07-03T03:45:30.916Z,-0.9
2017-07-03T03:46:30.631Z,-0.9
2017-07-03T03:47:29.732Z,-0.9
2017-07-03T03:48:28.974Z,-0.9
2017-07-03T03:49:27.944Z,-0.9
2017-07-03T03:50:27.158Z,-0.9
2017-07-03T03:51:26.356Z,-0.9
2017-07-03T03:52:25.567Z,-1
2017-07-03T03:53:24.654Z,-1
2017-07-03T03:54:24.258Z,-1
2017-07-03T03:55:23.358Z,-1.1
2017-07-03T03:56:22.567Z,-1.2
2017-07-03T03:57:21.777Z,-1.2
2017-07-03T03:58:20.982Z,-1.3
2017-07-03T03:58:52.397Z,-1.3
2017-07-03T04:00:19.686Z,-1.1
2017-07-03T04:01:19.464Z,-1.2
2017-07-03T04:02:18.178Z,-1.2
2017-07-03T04:03:17.388Z,-1.1
2017-07-03T04:04:17.208Z,-1.1
2017-07-03T04:05:16.502Z,-1.2
2017-07-03T04:06:14.733Z,-1.2
2017-07-03T04:07:13.958Z,-1.1
2017-07-03T04:08:13.173Z,-1.1
2017-07-03T04:09:12.401Z,-1.1
2017-07-03T04:10:11.622Z,-1.1
2017-07-03T04:10:42.224Z,-1.1
2017-07-03T04:11:12.750Z,-1.1
2017-07-03T04:12:10.461Z,-1.1
2017-07-03T04:13:09.563Z,-1.1
2017-07-03T04:14:08.769Z,-1.1
2017-07-03T04:15:08.542Z,-1
2017-07-03T04:16:07.832Z,-1.1
2017-07-03T04:17:06.545Z,-1
2017-07-03T04:18:05.748Z,-1
2017-07-03T04:19:05.034Z,-1
2017-07-03T04:20:04.596Z,-1
2017-07-03T04:21:03.306Z,-1
2017-07-03T04:22:02.514Z,-1
2017-07-03T04:23:01.726Z,-1
2017-07-03T04:24:01.008Z,-1
2017-07-03T04:25:00.218Z,-0.9
2017-07-03T04:25:59.323Z,-0.9
2017-07-03T04:26:58.553Z,-1.1
2017-07-03T04:27:58.105Z,-1.1
2017-07-03T04:28:57.314Z,-1.2
2017-07-03T04:29:57.095Z,-1.2
2017-07-03T04:30:55.804Z,-1.1
2017-07-03T04:31:55.022Z,-1.2
2017-07-03T04:33:53.118Z,-1.1
2017-07-03T04:35:51.618Z,-1.2
2017-07-03T04:36:50.936Z,-1.2
2017-07-03T04:37:50.146Z,-1.2
2017-07-03T04:38:49.367Z,-1.4
2017-07-03T04:39:48.587Z,-1.4
2017-07-03T04:40:47.805Z,-1.4
2017-07-03T04:41:46.905Z,-1.4
2017-07-03T04:42:46.122Z,-1.4
2017-07-03T04:43:45.760Z,-1.4
2017-07-03T04:44:44.985Z,-1.4
2017-07-03T04:45:44.189Z,-1.7
2017-07-03T04:46:43.408Z,-1.8
2017-07-03T04:47:42.618Z,-1.9
2017-07-03T04:48:41.881Z,-1.8
2017-07-03T04:49:41.137Z,-1.9
2017-07-03T04:50:40.369Z,-1.9
2017-07-03T04:51:39.572Z,-1.9
2017-07-03T04:52:38.676Z,-1.9
2017-07-03T04:54:37.276Z,-1.9
2017-07-03T04:55:36.478Z,-1.9
2017-07-03T04:56:35.577Z,-2.1
2017-07-03T04:57:34.557Z,-2.1
2017-07-03T04:58:33.663Z,-2.2
2017-07-03T04:59:33.251Z,-2.2
2017-07-03T05:00:32.353Z,-2.2
2017-07-03T05:01:31.585Z,-2.3
2017-07-03T05:02:30.794Z,-2.2
2017-07-03T05:03:30.025Z,-2.3
2017-07-03T05:04:29.133Z,-2.1
2017-07-03T05:04:59.650Z,-2.1
2017-07-03T05:05:29.938Z,-2
2017-07-03T05:06:00.452Z,-2
2017-07-03T05:07:26.844Z,-2
2017-07-03T05:08:26.635Z,-2.1
2017-07-03T05:09:25.365Z,-2.1
2017-07-03T05:10:24.566Z,-2.3
2017-07-03T05:11:24.110Z,-2.3
2017-07-03T05:12:23.083Z,-2.3
2017-07-03T05:13:22.123Z,-2.3
2017-07-03T05:14:21.848Z,-2.5
2017-07-03T05:15:21.057Z,-2.6
2017-07-03T05:16:20.274Z,-2.7
2017-07-03T05:17:19.486Z,-2.6
2017-07-03T05:18:19.856Z,-2.6
2017-07-03T05:20:16.950Z,-2.5
2017-07-03T05:21:16.166Z,-2.5
2017-07-03T05:22:15.377Z,-2.5
2017-07-03T05:23:15.157Z,-2.5
2017-07-03T05:24:13.881Z,-2.6
2017-07-03T05:25:12.975Z,-2.6
2017-07-03T05:26:12.189Z,-2.6
2017-07-03T05:28:10.796Z,-2.2
2017-07-03T05:29:10.612Z,-2.2
2017-07-03T05:30:09.322Z,-2.2
2017-07-03T05:31:08.545Z,-1.9
2017-07-03T05:32:07.782Z,-2
2017-07-03T05:33:07.001Z,-2
2017-07-03T05:34:06.092Z,-2
2017-07-03T05:35:05.305Z,-2.2
2017-07-03T05:36:05.104Z,-2.3
2017-07-03T05:37:04.212Z,-2.4
2017-07-03T05:38:03.446Z,-2.3
2017-07-03T05:40:01.192Z,-2.1
2017-07-03T05:41:00.911Z,-2.1
2017-07-03T05:42:00.121Z,-2.1
2017-07-03T05:42:59.435Z,-2.1
2017-07-03T05:43:58.645Z,-2.1
2017-07-03T05:44:29.081Z,-2.1
2017-07-03T05:44:59.603Z,-2.1
2017-07-03T05:45:30.023Z,-2.1
2017-07-03T05:46:00.536Z,-2.1
2017-07-03T05:46:31.644Z,-2.1
2017-07-03T05:47:55.284Z,-2.3
2017-07-03T05:49:53.880Z,-2.4
2017-07-03T05:50:52.970Z,-2.5
2017-07-03T05:51:52.689Z,-2.5
2017-07-03T05:52:52.480Z,-2.5
2017-07-03T05:53:51.200Z,-3
2017-07-03T05:54:50.991Z,-3.1
2017-07-03T05:55:50.160Z,-3.2
2017-07-03T05:56:20.058Z,-3.2
2017-07-03T05:56:50.458Z,-3.1
2017-07-03T05:57:21.538Z,-3.1
2017-07-03T05:57:51.514Z,-3.1
2017-07-03T05:58:22.045Z,-3.1
2017-07-03T05:59:46.436Z,-2.9
2017-07-03T06:00:45.462Z,-3
2017-07-03T06:01:44.679Z,-3
2017-07-03T06:02:43.679Z,-3.1
2017-07-03T06:04:42.780Z,-3.1
2017-07-03T06:05:41.987Z,-3.1
2017-07-03T06:06:41.198Z,-3.2
2017-07-03T06:07:40.401Z,-3.2
2017-07-03T06:08:39.503Z,-3.3
2017-07-03T06:09:39.184Z,-3.4
2017-07-03T06:10:37.833Z,-3.5
2017-07-03T06:11:37.038Z,-3.6
2017-07-03T06:12:36.244Z,-3.6
2017-07-03T06:13:35.457Z,-3.7
2017-07-03T06:14:34.674Z,-3.7
2017-07-03T06:15:33.879Z,-3.8
2017-07-03T06:16:04.461Z,-3.8
2017-07-03T06:16:34.983Z,-3.8
2017-07-03T06:17:32.569Z,-3.8
2017-07-03T06:18:31.782Z,-3.9
2017-07-03T06:19:31.567Z,-4
2017-07-03T06:20:30.337Z,-4.2
2017-07-03T06:21:29.446Z,-4.1
2017-07-03T06:22:28.576Z,-4
2017-07-03T06:23:27.797Z,-4.1
2017-07-03T06:24:27.039Z,-3.9
2017-07-03T06:25:26.138Z,-3.7
2017-07-03T06:26:25.867Z,-3.9
2017-07-03T06:27:25.091Z,-3.9
2017-07-03T06:28:24.325Z,-4
2017-07-03T06:30:22.800Z,-3.9
2017-07-03T06:31:22.018Z,-3.7
2017-07-03T06:32:21.227Z,-3.8
2017-07-03T06:33:20.445Z,-4
2017-07-03T06:34:20.221Z,-3.8
2017-07-03T06:35:18.938Z,-3.9
2017-07-03T06:36:18.142Z,-4
2017-07-03T06:36:48.754Z,-4
2017-07-03T06:37:19.292Z,-4.1
2017-07-03T06:37:49.696Z,-4.1
2017-07-03T06:39:15.603Z,-4.1
2017-07-03T06:40:15.316Z,-3.9
2017-07-03T06:41:15.098Z,-4.1
2017-07-03T06:42:13.187Z,-4.3
2017-07-03T06:43:12.855Z,-4.4
2017-07-03T06:44:12.074Z,-4.4
2017-07-03T06:45:11.289Z,-4.6
2017-07-03T06:46:10.494Z,-4.4
2017-07-03T06:47:09.713Z,-4.3
2017-07-03T06:48:08.935Z,-4.4
2017-07-03T06:49:08.140Z,-4.3
2017-07-03T06:50:07.227Z,-4.2
2017-07-03T06:51:07.510Z,-4.1
2017-07-03T06:52:06.235Z,-4.3
2017-07-03T06:53:05.496Z,-4.4
2017-07-03T06:54:04.731Z,-4.5
2017-07-03T06:55:03.942Z,-4.8
2017-07-03T06:56:03.726Z,-4.7
2017-07-03T06:57:02.440Z,-4.7
2017-07-03T06:58:01.644Z,-4.8
2017-07-03T06:59:00.858Z,-4.6
2017-07-03T07:00:00.079Z,-4.2
2017-07-03T07:00:59.173Z,-4.2
2017-07-03T07:01:58.387Z,-4.4
2017-07-03T07:02:57.474Z,-4.2
2017-07-03T07:03:56.698Z,-4.1
2017-07-03T07:04:57.011Z,-4.3
2017-07-03T07:05:55.266Z,-4.5
2017-07-03T07:06:54.499Z,-4.5
2017-07-03T07:07:53.707Z,-4.4
2017-07-03T07:08:53.434Z,-4.4
2017-07-03T07:09:52.656Z,-4.5
2017-07-03T07:10:52.434Z,-4.3
2017-07-03T07:11:51.030Z,-4.3
2017-07-03T07:12:50.240Z,-4.2
2017-07-03T07:13:49.452Z,-4.2
2017-07-03T07:14:48.670Z,-4.3
2017-07-03T07:15:47.896Z,-4.3
2017-07-03T07:16:46.987Z,-4.7
2017-07-03T07:17:46.077Z,-4.9
2017-07-03T07:18:45.798Z,-5.2
2017-07-03T07:19:45.016Z,-5.1
2017-07-03T07:20:44.799Z,-5.2
2017-07-03T07:21:43.419Z,-5.1
2017-07-03T07:22:42.646Z,-5.1
2017-07-03T07:23:41.856Z,-5
2017-07-03T07:24:41.638Z,-5
2017-07-03T07:25:40.238Z,-4.9
2017-07-03T07:26:39.873Z,-4.9
2017-07-03T07:27:39.115Z,-5
2017-07-03T07:28:38.317Z,-5.1
2017-07-03T07:29:37.526Z,-5.1
2017-07-03T07:30:37.310Z,-5
2017-07-03T07:31:36.008Z,-5
2017-07-03T07:32:35.095Z,-4.8
2017-07-03T07:33:34.180Z,-4.7
2017-07-03T07:34:33.906Z,-4.7
2017-07-03T07:35:33.117Z,-4.7
2017-07-03T07:36:32.883Z,-4.6
2017-07-03T07:37:31.585Z,-4.6
2017-07-03T07:38:30.794Z,-4.7
2017-07-03T07:39:30.011Z,-4.8
2017-07-03T07:40:28.874Z,-4.9
2017-07-03T07:41:28.583Z,-4.6
2017-07-03T07:42:27.680Z,-4.5
2017-07-03T07:43:27.279Z,-4.5
2017-07-03T07:44:26.384Z,-4.4
2017-07-03T07:45:26.155Z,-4.4
2017-07-03T07:46:24.867Z,-4.6
2017-07-03T07:47:24.039Z,-4.6
2017-07-03T07:48:23.260Z,-4.7
2017-07-03T07:49:23.559Z,-4.7
2017-07-03T07:50:22.278Z,-4.6
2017-07-03T07:51:21.370Z,-4.5
2017-07-03T07:52:20.575Z,-4.4
2017-07-03T07:53:19.788Z,-4.2
2017-07-03T07:54:18.947Z,-4.2
2017-07-03T07:55:18.056Z,-4.1
2017-07-03T07:56:18.382Z,-3.9
2017-07-03T07:57:16.975Z,-3.8
2017-07-03T07:58:16.067Z,-3.7
2017-07-03T07:59:15.287Z,-3.6
2017-07-03T08:00:15.054Z,-3.6
2017-07-03T08:01:13.761Z,-3.5
2017-07-03T08:02:13.474Z,-3.6
2017-07-03T08:03:12.682Z,-3.6
2017-07-03T08:03:43.218Z,-3.6
2017-07-03T08:05:11.682Z,-3.4
2017-07-03T08:06:10.391Z,-3.4
2017-07-03T08:07:09.604Z,-3.4
2017-07-03T08:08:08.816Z,-3.3
2017-07-03T08:09:08.038Z,-3.2
2017-07-03T08:10:07.265Z,-3.2
2017-07-03T08:11:06.993Z,-2.9
2017-07-03T08:12:06.096Z,-2.8
2017-07-03T08:13:05.312Z,-2.7
2017-07-03T08:14:04.411Z,-2.6
2017-07-03T08:14:34.946Z,-2.6
2017-07-03T08:15:05.480Z,-2.4
2017-07-03T08:15:36.006Z,-2.4
2017-07-03T08:16:06.542Z,-2.6
2017-07-03T08:17:02.119Z,-2.6
2017-07-03T08:18:02.419Z,-2.9
2017-07-03T08:20:00.292Z,-3.3
2017-07-03T08:20:59.805Z,-3.5
2017-07-03T08:21:59.021Z,-3.6
2017-07-03T08:22:58.784Z,-3.6
2017-07-03T08:23:57.374Z,-3.5
2017-07-03T08:24:56.595Z,-3.7
2017-07-03T08:25:55.810Z,-3.7
2017-07-03T08:26:55.607Z,-3.6
2017-07-03T08:27:54.316Z,-3.5
2017-07-03T08:28:54.603Z,-3.4
2017-07-03T08:29:53.069Z,-3.4
2017-07-03T08:30:52.742Z,-3.3
2017-07-03T08:31:51.445Z,-3.4
2017-07-03T08:32:51.172Z,-3.6
2017-07-03T08:33:50.384Z,-3.8
2017-07-03T08:34:49.595Z,-3.7
2017-07-03T08:35:48.687Z,-3.8
2017-07-03T08:36:48.213Z,-3.9
2017-07-03T08:37:47.937Z,-4
2017-07-03T08:38:47.224Z,-3.9
2017-07-03T08:39:45.931Z,-3.7
2017-07-03T08:40:45.152Z,-4
2017-07-03T08:41:44.374Z,-4.1
2017-07-03T08:42:44.523Z,-4.3
2017-07-03T08:43:43.232Z,-4.7
2017-07-03T08:44:42.457Z,-4.6
2017-07-03T08:45:41.683Z,-4.6
2017-07-03T08:47:40.288Z,-4.1
2017-07-03T08:48:39.500Z,-3.9
2017-07-03T08:49:38.600Z,-3.9
2017-07-03T08:50:38.199Z,-3.9
2017-07-03T08:51:37.404Z,-3.8
2017-07-03T08:52:36.618Z,-3.8
2017-07-03T08:53:35.911Z,-3.8
2017-07-03T08:54:35.136Z,-3.9
2017-07-03T08:55:34.357Z,-3.8
2017-07-03T08:56:33.948Z,-3.9
2017-07-03T08:57:33.154Z,-3.8
2017-07-03T08:58:32.254Z,-3.9
2017-07-03T08:59:31.734Z,-3.9
2017-07-03T09:00:30.840Z,-4
2017-07-03T09:01:31.131Z,-3.8
2017-07-03T09:02:29.845Z,-3.7
2017-07-03T09:03:29.070Z,-3.7
2017-07-03T09:04:28.166Z,-3.6
2017-07-03T09:05:27.378Z,-3.7
2017-07-03T09:06:27.142Z,-3.8
2017-07-03T09:07:26.122Z,-3.9
2017-07-03T09:08:25.769Z,-4.1
2017-07-03T09:09:24.352Z,-4.1
2017-07-03T09:10:24.069Z,-4.2
2017-07-03T09:11:23.168Z,-4.2
2017-07-03T09:12:22.958Z,-4.3
2017-07-03T09:12:52.991Z,-4.3
2017-07-03T09:14:21.954Z,-4.2
2017-07-03T09:15:20.671Z,-4.3
2017-07-03T09:16:19.882Z,-4
2017-07-03T09:17:19.093Z,-3.9
2017-07-03T09:18:18.311Z,-3.8
2017-07-03T09:19:18.110Z,-4.1
2017-07-03T09:20:16.826Z,-4.3
2017-07-03T09:21:16.035Z,-4.3
2017-07-03T09:22:15.747Z,-4.2
2017-07-03T09:23:15.538Z,-4.1
2017-07-03T09:23:46.136Z,-4.1
2017-07-03T09:25:13.414Z,-4.1
2017-07-03T09:26:12.396Z,-4.2
2017-07-03T09:27:12.675Z,-4.2
2017-07-03T09:28:11.402Z,-4.3
2017-07-03T09:29:10.622Z,-4.3
2017-07-03T09:30:09.836Z,-4.2
2017-07-03T09:31:09.540Z,-4.2
2017-07-03T09:32:08.748Z,-4.1
2017-07-03T09:33:07.838Z,-4
2017-07-03T09:34:06.932Z,-4.1
2017-07-03T09:35:06.413Z,-4.1
2017-07-03T09:36:06.134Z,-4.2
2017-07-03T09:37:05.237Z,-4.3
2017-07-03T09:38:04.342Z,-4.1
2017-07-03T09:39:04.055Z,-4.3
2017-07-03T09:40:03.059Z,-4.3
2017-07-03T09:41:02.744Z,-4.2
2017-07-03T09:42:01.950Z,-4.3
2017-07-03T09:43:01.050Z,-4.1
2017-07-03T09:44:00.153Z,-4
2017-07-03T09:44:59.876Z,-3.6
2017-07-03T09:45:59.092Z,-3.4
2017-07-03T09:46:58.085Z,-3.6
2017-07-03T09:47:57.830Z,-3.6
2017-07-03T09:48:57.056Z,-3.7
2017-07-03T09:49:56.288Z,-3.9
2017-07-03T09:50:55.572Z,-4.1
2017-07-03T09:51:54.790Z,-3.8
2017-07-03T09:52:54.501Z,-3.5
2017-07-03T09:53:54.274Z,-3.5
2017-07-03T09:54:52.990Z,-3.4
2017-07-03T09:55:52.207Z,-3.7
2017-07-03T09:56:51.296Z,-3.8
2017-07-03T09:57:51.028Z,-3.8
2017-07-03T09:58:50.249Z,-3.7
2017-07-03T09:59:49.469Z,-3.7
2017-07-03T10:00:48.713Z,-3.7
2017-07-03T10:01:47.837Z,-3.7
2017-07-03T10:02:47.544Z,-3.7
2017-07-03T10:03:46.647Z,-3.8
2017-07-03T10:04:46.247Z,-3.6
2017-07-03T10:05:45.466Z,-3.6
2017-07-03T10:06:44.692Z,-3.5
2017-07-03T10:07:43.923Z,-3.2
2017-07-03T10:08:43.736Z,-3.3
2017-07-03T10:09:42.945Z,-3.3
2017-07-03T10:11:41.551Z,-3.3
2017-07-03T10:12:40.769Z,-3.3
2017-07-03T10:13:40.580Z,-3.5
2017-07-03T10:14:39.180Z,-3.9
2017-07-03T10:15:38.839Z,-3.7
2017-07-03T10:16:38.052Z,-3.8
2017-07-03T10:17:37.279Z,-3.8
2017-07-03T10:18:36.998Z,-3.8
2017-07-03T10:19:36.203Z,-3.8
2017-07-03T10:20:35.420Z,-3.8
2017-07-03T10:21:34.647Z,-3.8
2017-07-03T10:22:34.371Z,-3.9
2017-07-03T10:23:33.477Z,-4
2017-07-03T10:24:32.683Z,-3.9
2017-07-03T10:25:31.786Z,-3.8
2017-07-03T10:26:31.383Z,-3.7
2017-07-03T10:27:30.595Z,-3.6
2017-07-03T10:28:30.330Z,-3.5
2017-07-03T10:29:29.318Z,-3.4
2017-07-03T10:30:28.921Z,-3.4
2017-07-03T10:31:29.194Z,-3.4
2017-07-03T10:32:27.394Z,-3.6
2017-07-03T10:33:26.485Z,-3.3
2017-07-03T10:34:26.201Z,-3.2
2017-07-03T10:35:25.883Z,-3.5
2017-07-03T10:36:25.163Z,-3.4
2017-07-03T10:37:24.130Z,-3.2
2017-07-03T10:38:23.236Z,-2.9
2017-07-03T10:39:22.968Z,-2.8
2017-07-03T10:41:21.586Z,-2.8
2017-07-03T10:42:20.818Z,-2.8
2017-07-03T10:43:20.022Z,-2.7
2017-07-03T10:44:20.332Z,-2.6
2017-07-03T10:45:19.037Z,-2.6
2017-07-03T10:47:17.643Z,-2.6
2017-07-03T10:48:16.609Z,-2.7
2017-07-03T10:49:16.318Z,-2.8
2017-07-03T10:50:15.523Z,-2.8
2017-07-03T10:51:14.743Z,-2.7
2017-07-03T10:51:45.262Z,-2.7
2017-07-03T10:52:15.665Z,-2.8
2017-07-03T10:53:14.469Z,-2.9
2017-07-03T10:54:13.191Z,-2.9
2017-07-03T10:55:12.393Z,-2.8
2017-07-03T10:56:11.602Z,-2.8
2017-07-03T10:57:11.328Z,-2.9
2017-07-03T10:58:10.541Z,-2.8
2017-07-03T10:59:09.775Z,-2.5
2017-07-03T11:00:08.987Z,-2.6
2017-07-03T11:01:08.582Z,-2.6
2017-07-03T11:02:07.682Z,-2.8
2017-07-03T11:03:07.399Z,-2.6
2017-07-03T11:04:06.608Z,-2.6
2017-07-03T11:05:05.819Z,-2.5
2017-07-03T11:06:05.418Z,-2.7
2017-07-03T11:07:04.518Z,-2.6
2017-07-03T11:08:04.243Z,-2.7
2017-07-03T11:09:03.465Z,-2.7
2017-07-03T11:10:02.564Z,-2.6
2017-07-03T11:11:02.280Z,-2.4
2017-07-03T11:12:01.938Z,-2.5
2017-07-03T11:13:00.332Z,-2.3
2017-07-03T11:14:00.049Z,-2.4
2017-07-03T11:14:59.760Z,-2.4
2017-07-03T11:15:58.978Z,-2.2
2017-07-03T11:16:58.082Z,-2.1
2017-07-03T11:17:57.678Z,-2
2017-07-03T11:18:56.776Z,-1.9
2017-07-03T11:19:56.517Z,-1.9
2017-07-03T11:20:55.728Z,-2
2017-07-03T11:21:54.936Z,-2
2017-07-03T11:22:54.650Z,-2.1
2017-07-03T11:23:53.748Z,-1.8
2017-07-03T11:24:53.370Z,-1.8
2017-07-03T11:25:52.351Z,-2.1
2017-07-03T11:26:52.075Z,-2.3
2017-07-03T11:27:51.300Z,-2.2
2017-07-03T11:28:51.488Z,-2
2017-07-03T11:29:50.214Z,-2.1
2017-07-03T11:30:49.426Z,-1.9
2017-07-03T11:31:48.702Z,-2.1
2017-07-03T11:32:19.228Z,-2.1
2017-07-03T11:33:47.527Z,-1.8
2017-07-03T11:34:47.252Z,-2
2017-07-03T11:35:46.349Z,-1.7
2017-07-03T11:36:45.559Z,-1.6
2017-07-03T11:37:45.277Z,-1.6
2017-07-03T11:38:44.435Z,-1.7
2017-07-03T11:39:44.610Z,-1.6
2017-07-03T11:40:43.282Z,-1.7
2017-07-03T11:41:42.497Z,-1.9
2017-07-03T11:42:41.979Z,-1.8
2017-07-03T11:43:12.565Z,-1.8
2017-07-03T11:43:42.968Z,-1.9
2017-07-03T11:44:14.079Z,-1.9
2017-07-03T11:44:44.100Z,-1.7
2017-07-03T11:45:15.189Z,-1.7
2017-07-03T11:45:45.195Z,-1.6
2017-07-03T11:46:15.723Z,-1.6
2017-07-03T11:47:39.109Z,-1.8
2017-07-03T11:48:38.098Z,-1.6
2017-07-03T11:49:37.812Z,-1.5
2017-07-03T11:50:37.404Z,-1.7
2017-07-03T11:51:36.604Z,-1.6
2017-07-03T11:52:35.816Z,-1.7
2017-07-03T11:53:35.538Z,-1.6
2017-07-03T11:54:34.744Z,-1.5
2017-07-03T11:55:34.010Z,-1.7
2017-07-03T11:56:33.734Z,-1.3
2017-07-03T11:57:32.956Z,-1.2
2017-07-03T11:58:32.222Z,-1.3
2017-07-03T11:59:31.937Z,-1.2
2017-07-03T12:00:31.027Z,-1.1
2017-07-03T12:01:30.735Z,-1.3
2017-07-03T12:02:29.940Z,-1.2
2017-07-03T12:03:29.716Z,-1.3
2017-07-03T12:03:59.494Z,-1.3
2017-07-03T12:04:29.845Z,-1.2
2017-07-03T12:05:27.930Z,-1.2
2017-07-03T12:06:27.646Z,-1.8
2017-07-03T12:07:26.871Z,-2.1
2017-07-03T12:09:25.868Z,-1.7
2017-07-03T12:10:24.971Z,-1.4
2017-07-03T12:11:24.574Z,-1.1
2017-07-03T12:12:23.794Z,-1
2017-07-03T12:13:23.518Z,-1.2
2017-07-03T12:14:22.736Z,-0.9
2017-07-03T12:15:22.336Z,-1.1
2017-07-03T12:16:21.549Z,-1
2017-07-03T12:16:52.666Z,-1
2017-07-03T12:17:22.688Z,-0.8
2017-07-03T12:17:53.245Z,-0.8
2017-07-03T12:18:23.755Z,-0.5
2017-07-03T12:19:19.951Z,-0.5
2017-07-03T12:20:19.163Z,-0.4
2017-07-03T12:21:18.773Z,-0.3
2017-07-03T12:22:17.991Z,-0.2
2017-07-03T12:23:17.715Z,-0.2
2017-07-03T12:24:16.947Z,-0.1
2017-07-03T12:25:16.207Z,-0.2
2017-07-03T12:25:46.741Z,-0.2
2017-07-03T12:26:17.158Z,-0.4
2017-07-03T12:26:47.691Z,-0.4
2017-07-03T12:28:14.590Z,-0.5
2017-07-03T12:29:14.201Z,-0.9
2017-07-03T12:30:13.418Z,-1
2017-07-03T12:31:13.140Z,-1.3
2017-07-03T12:32:12.354Z,-1.4
2017-07-03T12:33:11.574Z,-1.5
2017-07-03T12:34:11.298Z,-1.3
2017-07-03T12:35:10.815Z,-0.8
2017-07-03T12:36:09.909Z,-0.6
2017-07-03T12:37:10.211Z,-0.9
2017-07-03T12:38:09.496Z,-0.6
2017-07-03T12:39:08.786Z,-0.6
2017-07-03T12:40:07.505Z,-0.6
2017-07-03T12:41:07.158Z,-0.6
2017-07-03T12:42:06.139Z,-0.5
2017-07-03T12:43:05.858Z,-0.2
2017-07-03T12:44:05.588Z,-0.1
2017-07-03T12:45:04.806Z,0.1
2017-07-03T12:46:04.030Z,0
2017-07-03T12:47:03.640Z,-0.2
2017-07-03T12:48:02.851Z,-0.2
2017-07-03T12:49:02.563Z,-0.3
2017-07-03T12:50:01.780Z,-0.8
2017-07-03T12:51:01.385Z,-0.9
2017-07-03T12:52:00.491Z,-0.8
2017-07-03T12:53:00.223Z,-1
2017-07-03T12:53:59.999Z,-0.7
2017-07-03T12:54:59.204Z,-0.6
2017-07-03T12:55:58.417Z,-0.3
2017-07-03T12:56:58.026Z,-0.2
2017-07-03T12:57:57.818Z,0
2017-07-03T12:58:57.039Z,-0.1
2017-07-03T12:59:56.124Z,0.3
2017-07-03T13:00:55.846Z,-0.2
2017-07-03T13:01:55.060Z,-0.1
2017-07-03T13:02:54.542Z,-0.1
2017-07-03T13:03:54.264Z,0
2017-07-03T13:04:53.377Z,-0.5
2017-07-03T13:05:53.099Z,-0.5
2017-07-03T13:06:52.184Z,-0.2
2017-07-03T13:07:51.889Z,0.1
2017-07-03T13:08:51.098Z,0.2